Time;durP1;ratioP1;P1;durP2;ratioP2;P2;SDS_P1;SDS_P2;PMS_P1;PMS_P2;Temp;Humidity;BMP_temperature;BMP_pressure;BME280_temperature;BME280_humidity;BME280_pressure;Samples;Min_cycle;Max_cycle;Signal;HPM_P1;HPM_P2
2023/06/04 00:01:23;;;;;;;1.00;0.90;;;20.90;44.00;;;;;;5047702;28;20127;-76
2023/06/04 00:03:48;;;;;;;1.17;0.88;;;20.80;44.00;;;;;;5062566;28;20097;-75
2023/06/04 00:06:15;;;;;;;1.10;1.00;;;20.80;44.10;;;;;;5060410;28;20082;-74
2023/06/04 00:08:41;;;;;;;1.70;1.10;;;20.80;44.10;;;;;;5057190;28;20021;-76
2023/06/04 00:11:06;;;;;;;2.63;0.90;;;20.70;44.20;;;;;;5047797;28;20036;-76
2023/06/04 00:13:32;;;;;;;0.85;0.80;;;20.70;44.20;;;;;;5044022;28;20028;-75
2023/06/04 00:15:58;;;;;;;0.82;0.80;;;20.60;44.20;;;;;;5044803;28;20037;-75
2023/06/04 00:18:23;;;;;;;1.00;0.90;;;20.60;44.30;;;;;;5045371;28;20493;-76
2023/06/04 00:20:49;;;;;;;0.82;0.82;;;20.60;44.30;;;;;;5051127;28;20091;-76
2023/06/04 00:23:15;;;;;;;1.13;0.93;;;20.50;44.30;;;;;;5058393;28;20420;-75
2023/06/04 00:25:41;;;;;;;1.00;0.88;;;20.50;44.40;;;;;;5046809;28;20025;-74
2023/06/04 00:28:06;;;;;;;0.95;0.90;;;20.40;44.40;;;;;;5060823;28;20499;-75
2023/06/04 00:30:32;;;;;;;0.98;0.90;;;20.40;44.50;;;;;;5046189;28;20491;-76
2023/06/04 00:32:59;;;;;;;1.25;1.15;;;20.40;44.50;;;;;;5063254;28;20080;-74
2023/06/04 00:35:25;;;;;;;0.88;0.85;;;20.40;44.60;;;;;;5044002;28;20048;-75
2023/06/04 00:37:50;;;;;;;1.38;0.90;;;20.30;44.60;;;;;;5050970;28;20440;-76
2023/06/04 00:40:16;;;;;;;1.42;0.90;;;20.30;44.60;;;;;;5059712;28;20146;-74
2023/06/04 00:42:44;;;;;;;0.90;0.90;;;20.30;44.60;;;;;;5046318;28;20036;-77
2023/06/04 00:45:10;;;;;;;1.25;0.98;;;20.20;44.60;;;;;;5074936;28;20504;-76
2023/06/04 00:47:36;;;;;;;1.15;1.05;;;20.20;44.70;;;;;;5054287;28;20029;-75
2023/06/04 00:50:02;;;;;;;0.82;0.82;;;20.10;44.70;;;;;;5029720;28;20027;-75
2023/06/04 00:52:28;;;;;;;1.50;1.08;;;20.10;44.70;;;;;;5061813;28;20024;-74
2023/06/04 00:54:54;;;;;;;1.02;0.93;;;20.10;44.80;;;;;;5059530;28;20406;-74
2023/06/04 00:57:23;;;;;;;0.85;0.85;;;20.10;44.80;;;;;;5057808;28;20041;-76
2023/06/04 00:59:49;;;;;;;1.10;1.00;;;20.00;44.80;;;;;;5058980;28;20036;-75
2023/06/04 01:02:25;;;;;;;0.90;0.90;;;19.90;44.80;;;;;;5047201;28;20039;-75
2023/06/04 01:04:58;;;;;;;1.10;1.00;;;19.90;44.80;;;;;;5060599;28;20461;-75
2023/06/04 01:07:30;;;;;;;1.10;1.00;;;19.90;44.90;;;;;;5055849;28;20029;-75
2023/06/04 01:09:56;;;;;;;1.02;0.80;;;19.90;45.00;;;;;;5053177;28;20576;-76
2023/06/04 01:12:23;;;;;;;1.15;0.75;;;19.80;45.00;;;;;;5058951;28;20213;-74
2023/06/04 01:14:49;;;;;;;1.05;0.90;;;19.80;45.00;;;;;;5090730;28;20067;-75
2023/06/04 01:17:28;;;;;;;1.35;0.82;;;19.80;45.00;;;;;;5043404;28;20580;-75
2023/06/04 01:20:03;;;;;;;1.45;0.80;;;19.80;45.10;;;;;;5096448;28;20687;-75
2023/06/04 01:22:42;;;;;;;1.08;0.98;;;19.70;45.10;;;;;;5048901;28;20016;-75
2023/06/04 01:25:23;;;;;;;1.13;0.80;;;19.70;45.20;;;;;;5054764;28;20043;-76
2023/06/04 01:27:55;;;;;;;0.73;0.73;;;19.60;45.20;;;;;;5063760;28;20052;-75
2023/06/04 01:30:43;;;;;;;1.02;0.90;;;19.60;45.20;;;;;;5067675;28;20063;-75
2023/06/04 01:33:13;;;;;;;0.80;0.80;;;19.50;45.20;;;;;;5090231;28;20059;-75
2023/06/04 01:35:39;;;;;;;0.88;0.88;;;19.50;45.30;;;;;;5053608;28;20573;-75
2023/06/04 01:38:06;;;;;;;0.95;0.77;;;19.50;45.30;;;;;;5058443;28;20032;-76
2023/06/04 01:40:32;;;;;;;0.90;0.90;;;19.40;45.30;;;;;;5047021;28;20017;-76
2023/06/04 01:42:58;;;;;;;1.30;1.08;;;19.40;45.40;;;;;;5046367;28;20025;-75
2023/06/04 01:45:25;;;;;;;1.55;1.08;;;19.40;45.40;;;;;;5041215;28;20033;-75
2023/06/04 01:47:52;;;;;;;1.33;0.95;;;19.30;45.40;;;;;;5023176;28;20041;-76
2023/06/04 01:50:18;;;;;;;1.20;1.10;;;19.30;45.50;;;;;;5062324;28;20028;-77
2023/06/04 01:52:44;;;;;;;0.98;0.90;;;19.30;45.50;;;;;;5066717;28;20032;-77
2023/06/04 01:55:13;;;;;;;0.93;0.80;;;19.30;45.50;;;;;;5058393;28;20025;-75
2023/06/04 01:57:39;;;;;;;0.73;0.73;;;19.20;45.60;;;;;;5054459;28;20017;-77
2023/06/04 02:00:10;;;;;;;1.25;1.13;;;19.20;45.60;;;;;;5052017;28;20465;-78
2023/06/04 02:02:45;;;;;;;1.02;0.93;;;19.10;45.60;;;;;;5061869;28;20119;-77
2023/06/04 02:05:12;;;;;;;0.90;0.90;;;19.10;45.60;;;;;;5043857;28;20047;-75
2023/06/04 02:07:39;;;;;;;1.00;0.90;;;19.10;45.60;;;;;;5057041;28;20020;-76
2023/06/04 02:10:10;;;;;;;1.17;1.05;;;19.00;45.70;;;;;;5066943;28;20025;-75
2023/06/04 02:12:40;;;;;;;1.15;0.90;;;19.00;45.70;;;;;;5045710;28;20029;-76
2023/06/04 02:15:10;;;;;;;1.45;1.05;;;19.00;45.80;;;;;;5046033;28;20029;-76
2023/06/04 02:17:42;;;;;;;0.93;0.90;;;19.00;45.90;;;;;;5047144;28;20065;-75
2023/06/04 02:20:09;;;;;;;0.88;0.88;;;18.90;45.80;;;;;;5065482;28;20107;-76
2023/06/04 02:22:35;;;;;;;1.10;1.00;;;18.90;45.90;;;;;;5064616;28;20389;-75
2023/06/04 02:25:01;;;;;;;1.35;1.10;;;18.90;45.90;;;;;;5067033;28;20033;-75
2023/06/04 02:27:27;;;;;;;1.00;0.95;;;18.80;45.90;;;;;;5066260;28;20037;-75
2023/06/04 02:29:53;;;;;;;2.00;1.15;;;18.80;45.90;;;;;;5054952;28;20073;-75
2023/06/04 02:32:19;;;;;;;1.48;0.95;;;18.80;46.00;;;;;;5060961;28;20033;-74
2023/06/04 02:34:46;;;;;;;1.10;0.90;;;18.70;46.00;;;;;;5051562;28;20048;-74
2023/06/04 02:37:11;;;;;;;1.45;1.20;;;18.70;46.00;;;;;;5062091;28;20029;-75
2023/06/04 02:39:37;;;;;;;2.45;1.10;;;18.60;46.00;;;;;;5054377;28;20431;-76
2023/06/04 02:42:03;;;;;;;0.90;0.90;;;18.60;46.10;;;;;;5060795;28;20087;-79
2023/06/04 02:44:30;;;;;;;0.90;0.90;;;18.60;46.10;;;;;;5050132;28;20389;-74
2023/06/04 02:46:56;;;;;;;1.40;1.00;;;18.60;46.90;;;;;;5045871;28;20052;-75
2023/06/04 02:49:22;;;;;;;1.10;1.00;;;18.50;46.80;;;;;;5056899;28;20033;-75
2023/06/04 02:51:48;;;;;;;1.15;0.93;;;18.50;46.20;;;;;;5059186;28;20029;-75
2023/06/04 02:54:14;;;;;;;1.77;1.20;;;18.50;46.20;;;;;;5062168;28;20036;-75
2023/06/04 02:56:40;;;;;;;1.23;1.13;;;18.50;46.20;;;;;;5061289;28;20151;-74
2023/06/04 02:59:09;;;;;;;2.28;1.10;;;18.40;46.20;;;;;;5058125;28;20059;-75
2023/06/04 03:01:35;;;;;;;1.10;1.00;;;18.40;46.30;;;;;;5057289;28;20111;-75
2023/06/04 03:04:04;;;;;;;1.95;1.10;;;18.30;46.30;;;;;;5080088;28;20033;-74
2023/06/04 03:06:34;;;;;;;0.80;0.80;;;18.30;46.30;;;;;;5046562;28;20563;-74
2023/06/04 03:09:00;;;;;;;1.33;0.90;;;18.30;46.30;;;;;;5046837;28;20036;-75
2023/06/04 03:11:27;;;;;;;1.35;1.08;;;18.30;46.40;;;;;;5056984;28;20390;-75
2023/06/04 03:13:53;;;;;;;0.90;0.90;;;18.30;46.40;;;;;;5059828;28;20063;-73
2023/06/04 03:16:20;;;;;;;1.10;1.00;;;18.20;46.50;;;;;;5059591;28;20039;-76
2023/06/04 03:18:46;;;;;;;1.15;1.05;;;18.20;46.40;;;;;;5061876;28;20033;-75
2023/06/04 03:21:13;;;;;;;1.40;1.10;;;18.20;46.50;;;;;;5065179;28;20431;-74
2023/06/04 03:23:39;;;;;;;1.25;0.98;;;18.10;46.50;;;;;;5063123;28;20051;-76
2023/06/04 03:26:05;;;;;;;1.40;1.05;;;18.10;46.60;;;;;;5066365;28;20044;-79
2023/06/04 03:28:32;;;;;;;1.67;1.13;;;18.10;46.60;;;;;;5033132;28;20032;-76
2023/06/04 03:30:59;;;;;;;0.80;0.80;;;18.10;46.70;;;;;;5052515;28;20029;-77
2023/06/04 03:33:26;;;;;;;1.83;1.23;;;18.00;46.60;;;;;;5047508;28;20025;-75
2023/06/04 03:35:52;;;;;;;1.60;1.02;;;18.00;46.70;;;;;;5059243;28;20056;-76
2023/06/04 03:38:19;;;;;;;1.50;1.08;;;18.00;46.80;;;;;;5064241;28;20060;-75
2023/06/04 03:40:45;;;;;;;0.88;0.88;;;17.90;46.80;;;;;;5059318;28;20068;-75
2023/06/04 03:43:12;;;;;;;1.50;0.98;;;17.90;46.80;;;;;;5062370;28;20033;-76
2023/06/04 03:45:38;;;;;;;1.10;0.90;;;17.90;46.90;;;;;;5029015;28;20035;-77
2023/06/04 03:48:04;;;;;;;1.00;1.00;;;17.80;46.90;;;;;;5051632;28;20029;-76
2023/06/04 03:50:31;;;;;;;0.90;0.90;;;17.80;46.90;;;;;;5084294;28;20025;-75
2023/06/04 03:52:57;;;;;;;1.23;1.10;;;17.80;47.00;;;;;;5059171;28;20040;-76
2023/06/04 03:55:24;;;;;;;0.90;0.90;;;17.70;46.90;;;;;;5064170;28;20037;-75
2023/06/04 03:57:51;;;;;;;1.40;1.00;;;17.70;47.00;;;;;;5020586;28;20033;-76
2023/06/04 04:00:20;;;;;;;1.17;1.00;;;17.70;47.10;;;;;;5063239;28;20556;-77
2023/06/04 04:02:49;;;;;;;1.00;0.95;;;17.70;47.10;;;;;;5072532;28;20029;-75
2023/06/04 04:05:21;;;;;;;1.40;1.17;;;17.60;47.10;;;;;;5052285;28;20391;-75
2023/06/04 04:07:48;;;;;;;1.80;1.15;;;17.60;47.10;;;;;;5067118;28;20106;-75
2023/06/04 04:10:17;;;;;;;1.08;0.90;;;17.60;47.20;;;;;;5053816;28;20033;-75
2023/06/04 04:12:43;;;;;;;1.10;0.98;;;17.60;47.20;;;;;;5041802;28;20047;-77
2023/06/04 04:15:09;;;;;;;1.38;1.00;;;17.50;47.20;;;;;;5056322;28;20036;-75
2023/06/04 04:17:35;;;;;;;1.50;1.00;;;17.50;47.30;;;;;;5063097;28;20028;-76
2023/06/04 04:20:04;;;;;;;1.00;1.00;;;17.50;47.30;;;;;;5044182;28;20047;-77
2023/06/04 04:22:31;;;;;;;1.30;1.10;;;17.50;47.40;;;;;;5040992;28;20796;-76
2023/06/04 04:24:57;;;;;;;1.58;1.20;;;17.40;47.30;;;;;;5051804;28;20043;-75
2023/06/04 04:27:23;;;;;;;1.55;1.20;;;17.40;47.40;;;;;;5027158;28;20048;-75
2023/06/04 04:29:50;;;;;;;1.70;1.30;;;17.40;47.50;;;;;;5061939;28;20999;-75
2023/06/04 04:32:16;;;;;;;1.65;0.98;;;17.40;47.50;;;;;;5065468;28;20427;-77
2023/06/04 04:34:53;;;;;;;2.08;1.17;;;17.40;47.50;;;;;;5058881;28;20057;-76
2023/06/04 04:37:23;;;;;;;1.48;1.00;;;17.40;47.60;;;;;;5060757;28;20039;-77
2023/06/04 04:39:53;;;;;;;2.05;0.98;;;17.30;47.50;;;;;;5068518;28;20116;-77
2023/06/04 04:42:20;;;;;;;1.20;1.10;;;17.30;47.60;;;;;;5042793;28;20036;-76
2023/06/04 04:44:50;;;;;;;0.85;0.85;;;17.30;47.70;;;;;;5043205;28;20116;-75
2023/06/04 04:47:17;;;;;;;1.05;0.95;;;17.30;47.70;;;;;;5055887;28;20033;-77
2023/06/04 04:49:43;;;;;;;1.52;1.10;;;17.30;47.70;;;;;;5061323;28;20043;-75
2023/06/04 04:52:08;;;;;;;1.52;1.10;;;17.30;47.80;;;;;;5056822;28;20037;-76
2023/06/04 04:54:36;;;;;;;1.40;1.00;;;17.20;47.80;;;;;;5057249;28;20047;-77
2023/06/04 04:57:03;;;;;;;1.20;1.05;;;17.20;47.80;;;;;;5050741;28;20066;-76
2023/06/04 04:59:28;;;;;;;1.00;0.95;;;17.20;47.90;;;;;;5047524;28;20033;-77
2023/06/04 05:01:57;;;;;;;2.20;1.30;;;17.20;47.90;;;;;;5042485;28;20035;-76
2023/06/04 05:04:23;;;;;;;1.63;1.13;;;17.20;48.00;;;;;;5044445;28;20041;-76
2023/06/04 05:06:49;;;;;;;1.20;1.10;;;17.20;48.00;;;;;;5032350;28;20452;-76
2023/06/04 05:09:15;;;;;;;1.75;1.23;;;17.10;48.00;;;;;;5046804;28;20458;-76
2023/06/04 05:11:41;;;;;;;1.63;1.20;;;17.10;48.10;;;;;;5077226;28;20116;-76
2023/06/04 05:14:07;;;;;;;1.95;1.40;;;17.10;48.10;;;;;;5019355;28;20136;-76
2023/06/04 05:16:35;;;;;;;1.13;1.02;;;17.10;48.10;;;;;;5046077;28;20239;-76
2023/06/04 05:19:02;;;;;;;1.95;1.50;;;17.10;48.30;;;;;;5057000;28;20109;-77
2023/06/04 05:21:32;;;;;;;1.45;1.27;;;17.10;48.20;;;;;;5048782;28;20029;-75
2023/06/04 05:24:03;;;;;;;1.40;1.20;;;17.10;48.20;;;;;;5065776;28;20044;-76
2023/06/04 05:26:33;;;;;;;1.45;1.15;;;17.10;48.30;;;;;;5045357;28;20028;-77
2023/06/04 05:29:04;;;;;;;1.75;1.20;;;17.10;48.30;;;;;;5045700;28;20026;-76
2023/06/04 05:31:34;;;;;;;1.65;1.30;;;17.10;48.30;;;;;;5063189;28;20226;-77
2023/06/04 05:34:05;;;;;;;2.10;1.25;;;17.10;48.40;;;;;;5084342;28;20060;-75
2023/06/04 05:36:32;;;;;;;1.60;1.13;;;17.10;48.40;;;;;;5022039;28;20074;-77
2023/06/04 05:39:02;;;;;;;1.75;1.30;;;17.10;48.40;;;;;;5048289;28;20020;-75
2023/06/04 05:41:37;;;;;;;1.27;1.17;;;17.10;48.40;;;;;;5079557;28;20037;-74
2023/06/04 05:44:04;;;;;;;1.67;1.20;;;17.10;48.40;;;;;;5052284;28;20028;-76
2023/06/04 05:46:30;;;;;;;1.95;1.27;;;17.10;48.50;;;;;;5043982;28;20028;-76
2023/06/04 05:48:56;;;;;;;1.63;1.30;;;17.10;48.50;;;;;;5038906;28;20025;-75
2023/06/04 05:51:23;;;;;;;1.25;1.15;;;17.10;48.50;;;;;;5059061;28;20032;-76
2023/06/04 05:53:50;;;;;;;0.95;0.93;;;17.10;48.60;;;;;;5068971;28;20025;-75
2023/06/04 05:56:16;;;;;;;1.88;1.20;;;17.10;48.60;;;;;;5034294;28;20119;-75
2023/06/04 05:58:42;;;;;;;1.48;1.30;;;17.00;48.60;;;;;;5035030;28;20040;-77
2023/06/04 06:01:09;;;;;;;1.42;1.05;;;17.10;48.70;;;;;;5026331;28;20025;-76
2023/06/04 06:03:36;;;;;;;1.50;1.15;;;17.10;48.70;;;;;;5055251;28;20105;-75
2023/06/04 06:06:02;;;;;;;1.63;1.27;;;17.10;48.70;;;;;;5062536;28;20051;-74
2023/06/04 06:08:28;;;;;;;2.10;1.33;;;17.10;48.70;;;;;;5030515;28;20082;-76
2023/06/04 06:10:55;;;;;;;1.30;1.20;;;17.10;48.70;;;;;;5047090;28;20036;-75
2023/06/04 06:13:21;;;;;;;1.85;1.25;;;17.10;48.80;;;;;;5026575;28;20021;-74
2023/06/04 06:15:52;;;;;;;1.60;1.10;;;17.10;48.80;;;;;;5061669;28;20045;-75
2023/06/04 06:18:18;;;;;;;1.85;1.30;;;17.10;48.80;;;;;;5029808;28;20033;-75
2023/06/04 06:20:44;;;;;;;1.40;1.30;;;17.10;48.80;;;;;;5049941;28;20029;-75
2023/06/04 06:23:10;;;;;;;1.45;1.20;;;17.10;48.80;;;;;;5036002;28;20033;-75
2023/06/04 06:25:41;;;;;;;2.50;1.33;;;17.10;49.50;;;;;;5054032;28;20117;-76
2023/06/04 06:28:12;;;;;;;1.33;1.20;;;17.10;48.90;;;;;;5055235;28;20032;-75
2023/06/04 06:30:38;;;;;;;1.58;1.08;;;17.10;48.90;;;;;;5033962;28;20025;-76
2023/06/04 06:33:04;;;;;;;1.55;1.20;;;17.10;48.80;;;;;;5063328;28;20036;-76
2023/06/04 06:35:29;;;;;;;1.90;1.42;;;17.10;48.90;;;;;;5059905;28;20057;-74
2023/06/04 06:37:55;;;;;;;1.73;1.30;;;17.20;48.90;;;;;;5043666;28;20420;-75
2023/06/04 06:40:21;;;;;;;1.90;1.30;;;17.20;49.20;;;;;;5050297;28;20416;-75
2023/06/04 06:42:53;;;;;;;1.58;1.10;;;17.20;48.90;;;;;;5047673;28;20119;-75
2023/06/04 06:45:19;;;;;;;1.70;1.20;;;17.20;49.00;;;;;;5050311;28;20098;-76
2023/06/04 06:47:45;;;;;;;1.85;1.20;;;17.20;49.00;;;;;;5065410;28;20017;-76
2023/06/04 06:50:11;;;;;;;1.67;1.30;;;17.20;49.00;;;;;;5059527;28;20055;-75
2023/06/04 06:52:37;;;;;;;1.25;1.15;;;17.20;49.00;;;;;;5062391;28;20176;-76
2023/06/04 06:55:06;;;;;;;1.63;1.27;;;17.20;49.10;;;;;;5050364;28;20043;-75
2023/06/04 06:57:33;;;;;;;2.05;1.10;;;17.30;49.10;;;;;;5062615;28;20116;-76
2023/06/04 06:59:59;;;;;;;1.80;1.55;;;17.30;49.10;;;;;;5055920;28;20082;-76
2023/06/04 07:02:25;;;;;;;1.15;1.10;;;17.30;49.10;;;;;;5065430;28;20536;-76
2023/06/04 07:04:51;;;;;;;1.30;1.10;;;17.30;49.10;;;;;;5064457;28;20037;-77
2023/06/04 07:07:17;;;;;;;1.50;1.20;;;17.30;49.00;;;;;;5053032;28;20025;-77
2023/06/04 07:09:42;;;;;;;1.60;1.05;;;17.30;49.10;;;;;;5069204;28;20419;-75
2023/06/04 07:12:08;;;;;;;1.20;1.10;;;17.30;49.10;;;;;;5062695;28;20025;-80
2023/06/04 07:14:34;;;;;;;1.33;1.23;;;17.40;49.10;;;;;;5042861;28;20400;-74
2023/06/04 07:17:00;;;;;;;1.08;0.98;;;17.30;49.10;;;;;;5074819;28;20476;-73
2023/06/04 07:19:26;;;;;;;1.73;1.10;;;17.40;49.10;;;;;;5061454;28;20097;-74
2023/06/04 07:21:55;;;;;;;1.25;1.00;;;17.40;49.10;;;;;;5074724;28;20581;-74
2023/06/04 07:24:21;;;;;;;1.60;1.20;;;17.50;49.10;;;;;;5059048;28;20029;-78
2023/06/04 07:26:48;;;;;;;1.38;1.23;;;17.50;49.00;;;;;;5049429;28;20025;-74
2023/06/04 07:29:13;;;;;;;1.70;1.10;;;17.50;49.00;;;;;;5061232;28;20133;-74
2023/06/04 07:31:40;;;;;;;1.85;1.33;;;17.50;48.90;;;;;;5064212;28;20109;-75
2023/06/04 07:34:06;;;;;;;1.58;1.10;;;17.60;48.90;;;;;;5066061;28;20028;-74
2023/06/04 07:36:32;;;;;;;1.75;1.40;;;17.60;48.80;;;;;;5030439;28;20143;-78
2023/06/04 07:38:59;;;;;;;1.52;1.25;;;17.70;48.80;;;;;;5091258;28;20469;-75
2023/06/04 07:41:25;;;;;;;1.08;1.00;;;17.70;48.80;;;;;;5048515;28;20256;-75
2023/06/04 07:43:52;;;;;;;1.05;1.02;;;17.80;48.70;;;;;;5054418;28;20025;-75
2023/06/04 07:46:20;;;;;;;1.95;1.10;;;17.90;48.70;;;;;;5048603;28;20024;-75
2023/06/04 07:48:46;;;;;;;1.95;1.15;;;17.90;48.60;;;;;;5045270;28;20052;-74
2023/06/04 07:51:13;;;;;;;1.25;1.00;;;18.00;48.60;;;;;;5058779;28;20060;-76
2023/06/04 07:53:39;;;;;;;1.10;0.88;;;18.10;48.60;;;;;;5051079;28;20052;-75
2023/06/04 07:56:05;;;;;;;1.30;1.20;;;18.10;49.10;;;;;;5058160;28;20460;-75
2023/06/04 07:58:31;;;;;;;1.10;1.00;;;18.20;48.40;;;;;;5090015;28;20048;-75
2023/06/04 08:00:57;;;;;;;1.00;1.00;;;18.30;48.30;;;;;;5065484;28;20024;-74
2023/06/04 08:03:24;;;;;;;0.90;0.90;;;18.30;48.30;;;;;;5059389;28;20731;-73
2023/06/04 08:05:50;;;;;;;2.00;1.10;;;18.40;48.20;;;;;;5060087;28;20075;-75
2023/06/04 08:08:16;;;;;;;1.25;1.00;;;18.50;48.20;;;;;;5057923;28;20029;-74
2023/06/04 08:10:42;;;;;;;1.20;1.10;;;18.60;48.10;;;;;;5062083;28;20075;-74
2023/06/04 08:13:09;;;;;;;1.25;1.10;;;18.70;48.10;;;;;;5043960;28;20033;-74
2023/06/04 08:15:35;;;;;;;2.58;1.42;;;18.70;48.00;;;;;;5044416;28;20571;-75
2023/06/04 08:18:01;;;;;;;1.10;1.00;;;18.90;47.90;;;;;;5062781;28;20033;-74
2023/06/04 08:20:27;;;;;;;1.15;0.93;;;18.90;47.90;;;;;;5059053;28;20036;-75
2023/06/04 08:22:52;;;;;;;1.75;1.10;;;19.00;47.80;;;;;;5048858;28;20056;-74
2023/06/04 08:25:18;;;;;;;1.45;1.10;;;19.10;47.80;;;;;;5059563;28;20032;-74
2023/06/04 08:27:44;;;;;;;0.85;0.80;;;19.20;47.70;;;;;;5044132;28;20033;-74
2023/06/04 08:30:10;;;;;;;1.30;0.90;;;19.30;48.40;;;;;;5059497;28;20459;-75
2023/06/04 08:32:36;;;;;;;1.45;0.90;;;19.40;47.70;;;;;;5060735;28;20134;-75
2023/06/04 08:35:02;;;;;;;1.10;0.90;;;19.40;47.60;;;;;;5046753;28;20076;-76
2023/06/04 08:37:28;;;;;;;1.17;1.05;;;19.50;47.60;;;;;;5040476;28;20051;-75
2023/06/04 08:39:54;;;;;;;1.13;1.08;;;19.60;47.60;;;;;;5054561;28;20037;-74
2023/06/04 08:42:37;;;;;;;1.33;1.08;;;19.70;47.60;;;;;;5046002;28;20369;-74
2023/06/04 08:45:03;;;;;;;0.80;0.80;;;19.80;47.60;;;;;;5059978;28;20240;-75
2023/06/04 08:47:30;;;;;;;1.00;0.90;;;19.90;47.50;;;;;;5058755;28;20091;-74
2023/06/04 08:50:02;;;;;;;1.23;1.00;;;20.00;47.50;;;;;;5029515;28;20048;-74
2023/06/04 08:52:29;;;;;;;1.60;1.08;;;20.10;47.50;;;;;;5063134;28;20460;-76
2023/06/04 08:54:55;;;;;;;1.10;0.80;;;20.20;47.40;;;;;;5057827;28;20048;-74
2023/06/04 08:57:21;;;;;;;0.90;0.90;;;20.30;47.40;;;;;;5062523;28;20029;-73
2023/06/04 08:59:47;;;;;;;0.88;0.88;;;20.40;47.40;;;;;;5049544;28;20036;-73
2023/06/04 09:02:14;;;;;;;0.90;0.90;;;20.50;47.40;;;;;;5064649;28;20028;-74
2023/06/04 09:04:40;;;;;;;1.00;0.90;;;20.60;47.40;;;;;;5059905;28;20143;-74
2023/06/04 09:07:08;;;;;;;1.00;0.90;;;20.70;47.40;;;;;;5048846;28;20028;-78
2023/06/04 09:09:39;;;;;;;0.80;0.80;;;20.80;47.30;;;;;;5075991;28;20576;-75
2023/06/04 09:12:10;;;;;;;0.93;0.93;;;20.90;47.30;;;;;;5056909;28;20029;-75
2023/06/04 09:14:36;;;;;;;1.35;1.10;;;21.00;47.20;;;;;;5062077;28;20024;-75
2023/06/04 09:17:02;;;;;;;1.10;0.90;;;21.10;47.20;;;;;;5051418;28;20454;-77
2023/06/04 09:19:28;;;;;;;1.13;0.90;;;21.20;47.20;;;;;;5066634;28;20428;-76
2023/06/04 09:21:56;;;;;;;1.42;1.00;;;21.30;47.10;;;;;;5053912;28;20033;-75
2023/06/04 09:24:24;;;;;;;1.05;0.90;;;21.40;47.00;;;;;;5056860;28;20037;-75
2023/06/04 09:26:50;;;;;;;1.10;0.80;;;21.50;47.00;;;;;;5060345;28;20078;-75
2023/06/04 09:29:17;;;;;;;1.08;0.98;;;21.60;46.90;;;;;;5057728;28;20461;-76
2023/06/04 09:31:58;;;;;;;1.30;0.82;;;21.60;46.90;;;;;;5060961;28;20030;-75
2023/06/04 09:34:28;;;;;;;0.80;0.80;;;21.70;46.90;;;;;;5060095;28;20557;-75
2023/06/04 09:36:56;;;;;;;1.02;0.93;;;21.90;47.00;;;;;;5054106;28;20049;-75
2023/06/04 09:39:23;;;;;;;1.42;0.90;;;21.90;46.90;;;;;;5058050;28;20103;-74
2023/06/04 09:42:00;;;;;;;0.77;0.77;;;22.00;46.90;;;;;;5041063;28;20059;-75
2023/06/04 09:44:26;;;;;;;0.90;0.80;;;22.20;47.00;;;;;;5051450;28;20037;-73
2023/06/04 09:46:58;;;;;;;0.90;0.85;;;22.20;46.90;;;;;;5056240;28;20035;-73
2023/06/04 09:49:24;;;;;;;0.98;0.90;;;22.30;46.90;;;;;;5057100;28;20099;-74
2023/06/04 09:51:51;;;;;;;1.20;1.10;;;22.40;46.70;;;;;;5060302;28;20149;-74
2023/06/04 09:54:17;;;;;;;0.70;0.70;;;22.50;46.70;;;;;;5056526;28;20036;-74
2023/06/04 09:56:43;;;;;;;1.10;0.82;;;22.60;46.90;;;;;;5062164;28;20552;-75
2023/06/04 09:59:09;;;;;;;0.82;0.82;;;22.70;46.60;;;;;;5042471;28;20428;-75
2023/06/04 10:01:39;;;;;;;1.35;1.00;;;22.80;47.30;;;;;;5052509;28;20025;-75
2023/06/04 10:04:08;;;;;;;1.00;0.90;;;22.90;46.60;;;;;;5054332;28;20028;-75
2023/06/04 10:06:35;;;;;;;1.10;0.82;;;23.00;46.60;;;;;;5054953;28;20027;-75
2023/06/04 10:09:08;;;;;;;1.25;0.90;;;23.10;46.60;;;;;;5061268;28;20024;-76
2023/06/04 10:11:46;;;;;;;0.73;0.73;;;23.20;46.50;;;;;;5057158;28;20041;-76
2023/06/04 10:14:12;;;;;;;0.80;0.80;;;23.30;46.50;;;;;;5051288;28;20159;-77
2023/06/04 10:16:39;;;;;;;0.75;0.75;;;23.40;46.40;;;;;;5086580;28;20021;-76
2023/06/04 10:19:08;;;;;;;1.20;0.60;;;23.40;46.20;;;;;;5057868;28;20025;-78
2023/06/04 10:21:37;;;;;;;1.67;0.80;;;23.60;46.20;;;;;;5053092;28;20420;-76
2023/06/04 10:24:03;;;;;;;0.70;0.70;;;23.60;46.10;;;;;;5055402;28;20029;-76
2023/06/04 10:26:30;;;;;;;1.08;0.80;;;23.70;46.00;;;;;;5060932;28;20445;-76
2023/06/04 10:28:57;;;;;;;0.80;0.80;;;23.80;46.00;;;;;;5051578;28;20028;-74
2023/06/04 10:31:23;;;;;;;0.98;0.90;;;23.90;46.00;;;;;;5053505;28;20036;-74
2023/06/04 10:33:56;;;;;;;0.80;0.75;;;24.00;46.00;;;;;;5044448;28;20020;-77
2023/06/04 10:36:23;;;;;;;1.10;0.80;;;24.10;46.00;;;;;;5058830;28;20044;-74
2023/06/04 10:38:53;;;;;;;0.70;0.70;;;24.20;45.90;;;;;;5045931;28;20100;-76
2023/06/04 10:41:21;;;;;;;1.38;0.77;;;24.20;45.70;;;;;;5063399;28;20032;-75
2023/06/04 10:43:49;;;;;;;0.60;0.60;;;24.30;45.60;;;;;;5060242;28;20473;-74
2023/06/04 10:46:17;;;;;;;1.05;0.90;;;24.40;45.50;;;;;;5057957;28;20397;-74
2023/06/04 10:48:50;;;;;;;1.00;0.90;;;24.50;46.20;;;;;;5065560;28;20064;-74
2023/06/04 10:51:32;;;;;;;0.88;0.88;;;24.50;45.30;;;;;;5056724;28;20108;-74
2023/06/04 10:53:59;;;;;;;1.17;0.80;;;24.60;45.30;;;;;;5040321;28;20021;-74
2023/06/04 10:56:29;;;;;;;1.00;0.73;;;24.70;45.20;;;;;;5059820;28;20537;-74
2023/06/04 10:58:58;;;;;;;1.60;0.80;;;24.70;45.10;;;;;;5066592;28;20032;-74
2023/06/04 11:01:28;;;;;;;1.05;0.80;;;24.80;45.10;;;;;;5056873;28;20040;-75
2023/06/04 11:03:55;;;;;;;1.27;0.90;;;24.80;45.00;;;;;;5059904;28;20519;-75
2023/06/04 11:06:21;;;;;;;0.57;0.57;;;24.90;45.00;;;;;;5049261;28;20025;-75
2023/06/04 11:08:48;;;;;;;1.00;0.90;;;24.90;44.90;;;;;;5068932;28;20047;-74
2023/06/04 11:11:16;;;;;;;0.70;0.70;;;25.00;44.90;;;;;;5030441;28;20094;-75
2023/06/04 11:13:43;;;;;;;1.02;0.80;;;25.10;45.00;;;;;;5066055;28;20120;-75
2023/06/04 11:16:19;;;;;;;0.85;0.82;;;25.00;44.80;;;;;;5052026;28;20036;-76
2023/06/04 11:18:58;;;;;;;0.75;0.70;;;25.10;44.90;;;;;;5055460;28;20090;-74
2023/06/04 11:21:25;;;;;;;0.80;0.80;;;25.10;44.90;;;;;;5057285;28;20078;-74
2023/06/04 11:24:01;;;;;;;0.85;0.70;;;25.10;44.80;;;;;;5065299;28;20027;-75
2023/06/04 11:26:46;;;;;;;1.02;0.77;;;25.20;44.90;;;;;;5039336;28;20033;-75
2023/06/04 11:29:14;;;;;;;0.80;0.77;;;25.20;45.00;;;;;;5081736;28;20048;-75
2023/06/04 11:31:49;;;;;;;0.80;0.80;;;25.20;45.00;;;;;;5025570;28;20127;-75
2023/06/04 11:34:29;;;;;;;0.80;0.77;;;25.20;44.90;;;;;;5064378;28;20037;-75
2023/06/04 11:36:55;;;;;;;1.15;0.95;;;25.30;45.00;;;;;;5063547;28;20040;-75
2023/06/04 11:39:22;;;;;;;1.40;0.88;;;25.20;44.90;;;;;;5056591;28;20033;-76
2023/06/04 11:41:51;;;;;;;1.13;0.75;;;25.30;45.00;;;;;;5060277;28;20017;-75
2023/06/04 11:44:19;;;;;;;1.20;0.75;;;25.30;45.10;;;;;;5070953;28;20400;-75
2023/06/04 11:46:48;;;;;;;1.80;0.90;;;25.30;45.10;;;;;;5055917;28;20330;-75
2023/06/04 11:49:18;;;;;;;1.65;0.82;;;25.30;45.10;;;;;;5054919;28;20543;-75
2023/06/04 11:51:52;;;;;;;0.80;0.80;;;25.40;45.20;;;;;;5071419;28;20372;-75
2023/06/04 11:54:20;;;;;;;1.00;0.80;;;25.40;45.30;;;;;;5067598;28;20461;-78
2023/06/04 11:56:49;;;;;;;1.25;0.82;;;25.40;45.30;;;;;;5068506;28;20336;-76
2023/06/04 11:59:16;;;;;;;0.75;0.75;;;25.40;45.20;;;;;;5066737;28;20029;-75
2023/06/04 12:01:43;;;;;;;1.15;0.80;;;25.40;45.20;;;;;;5061544;28;20036;-75
2023/06/04 12:04:17;;;;;;;1.13;0.90;;;25.40;45.20;;;;;;5063182;28;20109;-74
2023/06/04 12:06:57;;;;;;;0.75;0.75;;;25.40;45.30;;;;;;5060931;28;20021;-74
2023/06/04 12:09:24;;;;;;;0.70;0.70;;;25.40;45.30;;;;;;5070130;28;20032;-74
2023/06/04 12:11:50;;;;;;;0.70;0.70;;;25.40;45.30;;;;;;5056553;28;20526;-74
2023/06/04 12:14:20;;;;;;;0.93;0.70;;;25.40;45.20;;;;;;5061117;28;20071;-74
2023/06/04 12:17:00;;;;;;;0.60;0.60;;;25.40;45.20;;;;;;5076281;28;20370;-74
2023/06/04 12:19:26;;;;;;;0.77;0.75;;;25.40;45.10;;;;;;5041243;28;20040;-75
2023/06/04 12:22:04;;;;;;;0.88;0.80;;;25.40;45.10;;;;;;5084704;28;20042;-74
2023/06/04 12:24:31;;;;;;;1.00;0.77;;;25.50;45.10;;;;;;5040445;28;20029;-74
2023/06/04 12:27:04;;;;;;;0.80;0.73;;;25.50;45.00;;;;;;5076491;28;20030;-74
2023/06/04 12:29:30;;;;;;;0.95;0.88;;;25.50;45.00;;;;;;5060474;28;20058;-75
2023/06/04 12:32:12;;;;;;;0.93;0.77;;;25.50;44.90;;;;;;5048852;28;20057;-76
2023/06/04 12:34:40;;;;;;;0.98;0.88;;;25.50;44.80;;;;;;5065763;28;20074;-75
2023/06/04 12:37:07;;;;;;;1.17;1.05;;;25.50;44.90;;;;;;5036959;28;20075;-75
2023/06/04 12:39:36;;;;;;;0.77;0.77;;;25.40;44.80;;;;;;5056769;28;20032;-75
2023/06/04 12:42:08;;;;;;;1.00;0.80;;;25.50;44.90;;;;;;5049143;28;20427;-76
2023/06/04 12:44:36;;;;;;;0.70;0.70;;;25.50;45.50;;;;;;5058520;28;20036;-75
2023/06/04 12:47:03;;;;;;;0.63;0.63;;;25.40;44.60;;;;;;5056646;28;20037;-76
2023/06/04 12:49:28;;;;;;;0.80;0.80;;;25.50;44.60;;;;;;5067858;28;20373;-75
2023/06/04 12:51:54;;;;;;;1.30;0.80;;;25.50;44.60;;;;;;5048178;28;20040;-75